createdAt,value
2024-04-06T00:00:08.528Z,5.40
2024-04-06T00:01:08.508Z,5.30
2024-04-06T00:02:08.491Z,5.40
2024-04-06T00:03:08.475Z,6.80
2024-04-06T00:04:08.482Z,7.10
2024-04-06T00:05:08.447Z,7.70
2024-04-06T00:06:08.441Z,6.60
2024-04-06T00:07:08.414Z,7.30
2024-04-06T00:08:16.456Z,9.10
2024-04-06T00:09:09.397Z,8.00
2024-04-06T00:10:08.386Z,8.40
2024-04-06T00:11:08.389Z,7.10
2024-04-06T00:12:08.352Z,5.50
2024-04-06T00:13:08.344Z,6.60
2024-04-06T00:14:08.328Z,11.90
2024-04-06T00:15:08.315Z,11.50
2024-04-06T00:16:08.315Z,9.10
2024-04-06T00:17:08.295Z,5.00
2024-04-06T00:18:08.279Z,5.10
2024-04-06T00:19:08.269Z,5.60
2024-04-06T00:20:08.253Z,5.70
2024-04-06T00:21:08.264Z,5.70
2024-04-06T00:22:08.241Z,6.70
2024-04-06T00:23:08.209Z,5.50
2024-04-06T00:24:08.192Z,6.60
2024-04-06T00:25:08.178Z,4.80
2024-04-06T00:26:08.200Z,4.30
2024-04-06T00:27:08.168Z,3.70
2024-04-06T00:28:08.163Z,3.70
2024-04-06T00:29:08.132Z,3.40
2024-04-06T00:30:08.117Z,3.40
2024-04-06T00:31:08.115Z,2.80
2024-04-06T00:32:08.097Z,2.60
2024-04-06T00:33:08.089Z,2.70
2024-04-06T00:34:08.089Z,3.60
2024-04-06T00:35:08.061Z,4.30
2024-04-06T00:36:08.052Z,3.80
2024-04-06T00:37:08.020Z,3.20
2024-04-06T00:38:08.005Z,2.70
2024-04-06T00:39:08.000Z,2.60
2024-04-06T00:40:08.004Z,2.60
2024-04-06T00:41:07.984Z,2.80
2024-04-06T00:42:07.963Z,3.00
2024-04-06T00:43:07.961Z,2.90
2024-04-06T00:44:07.937Z,2.90
2024-04-06T00:45:07.935Z,3.00
2024-04-06T00:46:07.906Z,2.80
2024-04-06T00:47:07.895Z,3.10
2024-04-06T00:48:07.878Z,3.10
2024-04-06T00:49:07.868Z,3.90
2024-04-06T00:50:07.871Z,3.60
2024-04-06T00:51:07.838Z,3.50
2024-04-06T00:52:07.827Z,2.80
2024-04-06T00:53:07.824Z,2.70
2024-04-06T00:54:07.810Z,2.60
2024-04-06T00:55:07.808Z,2.90
2024-04-06T00:56:07.781Z,2.50
2024-04-06T00:57:07.760Z,2.20
2024-04-06T00:58:07.747Z,2.30
2024-04-06T00:59:07.742Z,2.40
2024-04-06T01:00:07.739Z,2.10
2024-04-06T01:01:07.706Z,2.00
2024-04-06T01:02:07.693Z,2.20
2024-04-06T01:03:07.679Z,2.20
2024-04-06T01:04:07.673Z,2.00
2024-04-06T01:05:07.677Z,2.00
2024-04-06T01:06:07.643Z,2.20
2024-04-06T01:07:07.632Z,2.10
2024-04-06T01:08:07.619Z,2.00
2024-04-06T01:09:07.616Z,2.00
2024-04-06T01:10:07.607Z,2.10
2024-04-06T01:11:07.601Z,2.30
2024-04-06T01:12:07.564Z,2.00
2024-04-06T01:13:07.547Z,2.00
2024-04-06T01:14:07.549Z,2.10
2024-04-06T01:15:07.533Z,2.10
2024-04-06T01:16:07.516Z,2.20
2024-04-06T01:17:07.494Z,2.00
2024-04-06T01:18:07.481Z,1.90
2024-04-06T01:19:07.482Z,2.20
2024-04-06T01:20:07.460Z,2.20
2024-04-06T01:21:07.450Z,2.30
2024-04-06T01:22:07.431Z,2.50
2024-04-06T01:23:07.416Z,2.50
2024-04-06T01:24:07.426Z,3.20
2024-04-06T01:25:07.399Z,2.50
2024-04-06T01:26:07.379Z,2.80
2024-04-06T01:27:07.375Z,3.20
2024-04-06T01:28:07.359Z,2.70
2024-04-06T01:29:07.376Z,2.70
2024-04-06T01:30:07.332Z,3.00
2024-04-06T01:31:07.335Z,2.50
2024-04-06T01:32:07.302Z,2.50
2024-04-06T01:33:07.316Z,2.80
2024-04-06T01:34:07.299Z,2.50
2024-04-06T01:35:07.263Z,2.60
2024-04-06T01:36:07.247Z,2.80
2024-04-06T01:37:07.232Z,2.40
2024-04-06T01:38:07.229Z,2.50
2024-04-06T01:39:07.219Z,2.70
2024-04-06T01:40:07.198Z,2.70
2024-04-06T01:41:07.181Z,3.00
2024-04-06T01:42:07.171Z,2.70
2024-04-06T01:43:07.169Z,3.00
2024-04-06T01:44:07.157Z,3.00
2024-04-06T01:45:07.132Z,3.20
2024-04-06T01:46:07.121Z,3.00
2024-04-06T01:47:07.132Z,2.70
2024-04-06T01:48:07.109Z,3.10
2024-04-06T01:49:07.081Z,3.00
2024-04-06T01:50:07.065Z,2.90
2024-04-06T01:51:07.051Z,2.70
2024-04-06T01:52:07.039Z,3.00
2024-04-06T01:53:07.038Z,2.80
2024-04-06T01:54:07.021Z,2.80
2024-04-06T01:55:07.002Z,3.30
2024-04-06T01:56:06.986Z,2.60
2024-04-06T01:57:06.977Z,2.80
2024-04-06T01:58:06.971Z,2.90
2024-04-06T01:59:06.946Z,2.90
2024-04-06T02:00:06.937Z,2.90
2024-04-06T02:01:06.919Z,2.50
2024-04-06T02:02:06.921Z,3.00
2024-04-06T02:03:06.934Z,3.00
2024-04-06T02:04:06.881Z,2.80
2024-04-06T02:05:06.873Z,2.70
2024-04-06T02:06:06.854Z,2.60
2024-04-06T02:07:06.950Z,2.60
2024-04-06T02:08:06.847Z,2.60
2024-04-06T02:09:06.814Z,2.70
2024-04-06T02:10:06.797Z,2.70
2024-04-06T02:11:06.786Z,2.90
2024-04-06T02:12:06.794Z,2.80
2024-04-06T02:13:06.762Z,2.70
2024-04-06T02:14:06.750Z,3.00
2024-04-06T02:15:06.733Z,2.90
2024-04-06T02:16:06.740Z,3.30
2024-04-06T02:17:06.753Z,3.00
2024-04-06T02:18:06.698Z,3.00
2024-04-06T02:19:06.702Z,3.10
2024-04-06T02:20:06.671Z,3.20
2024-04-06T02:21:06.697Z,3.30
2024-04-06T02:22:06.660Z,3.30
2024-04-06T02:23:06.635Z,3.20
2024-04-06T02:24:06.619Z,2.90
2024-04-06T02:25:06.606Z,3.00
2024-04-06T02:26:06.610Z,3.30
2024-04-06T02:27:06.581Z,3.10
2024-04-06T02:28:06.562Z,3.20
2024-04-06T02:29:06.554Z,3.20
2024-04-06T02:30:06.535Z,3.00
2024-04-06T02:31:06.542Z,3.40
2024-04-06T02:32:06.509Z,3.40
2024-04-06T02:33:06.499Z,3.30
2024-04-06T02:34:06.490Z,3.20
2024-04-06T02:35:06.496Z,3.10
2024-04-06T02:36:06.487Z,3.30
2024-04-06T02:37:06.446Z,3.10
2024-04-06T02:38:06.431Z,3.50
2024-04-06T02:39:06.420Z,3.10
2024-04-06T02:40:06.427Z,4.00
2024-04-06T02:41:06.395Z,4.90
2024-04-06T02:42:06.377Z,7.50
2024-04-06T02:43:06.368Z,7.50
2024-04-06T02:44:06.350Z,5.80
2024-04-06T02:45:06.356Z,4.30
2024-04-06T02:46:06.323Z,3.80
2024-04-06T02:47:06.309Z,3.20
2024-04-06T02:48:06.299Z,3.40
2024-04-06T02:49:06.285Z,3.70
2024-04-06T02:50:06.293Z,3.50
2024-04-06T02:51:06.277Z,3.40
2024-04-06T02:52:06.247Z,3.60
2024-04-06T02:53:06.236Z,3.40
2024-04-06T02:54:06.220Z,3.50
2024-04-06T02:55:06.223Z,3.20
2024-04-06T02:56:06.190Z,3.60
2024-04-06T02:57:06.174Z,3.20
2024-04-06T02:58:06.165Z,3.60
2024-04-06T02:59:06.151Z,3.30
2024-04-06T03:00:06.158Z,3.40
2024-04-06T03:01:06.132Z,3.60
2024-04-06T03:02:06.105Z,4.40
2024-04-06T03:03:06.110Z,4.10
2024-04-06T03:04:06.107Z,4.20
2024-04-06T03:05:06.095Z,4.40
2024-04-06T03:06:06.059Z,4.40
2024-04-06T03:07:06.148Z,4.20
2024-04-06T03:08:06.041Z,4.30
2024-04-06T03:09:06.036Z,4.70
2024-04-06T03:10:06.022Z,4.50
2024-04-06T03:11:05.996Z,4.20
2024-04-06T03:12:05.976Z,4.20
2024-04-06T03:13:05.968Z,4.10
2024-04-06T03:14:05.978Z,4.20
2024-04-06T03:15:05.938Z,4.00
2024-04-06T03:16:05.944Z,3.70
2024-04-06T03:17:05.919Z,3.40
2024-04-06T03:18:05.897Z,3.60
2024-04-06T03:19:05.899Z,4.70
2024-04-06T03:20:05.883Z,11.70
2024-04-06T03:21:05.864Z,9.80
2024-04-06T03:22:05.851Z,8.70
2024-04-06T03:23:05.855Z,9.30
2024-04-06T03:24:05.838Z,9.20
2024-04-06T03:25:05.813Z,12.70
2024-04-06T03:26:05.793Z,10.70
2024-04-06T03:27:05.791Z,10.10
2024-04-06T03:28:05.763Z,9.00
2024-04-06T03:29:05.770Z,9.10
2024-04-06T03:30:05.737Z,11.10
2024-04-06T03:31:05.730Z,10.20
2024-04-06T03:32:05.714Z,9.70
2024-04-06T03:33:05.716Z,8.50
2024-04-06T03:34:05.709Z,7.70
2024-04-06T03:35:05.674Z,6.40
2024-04-06T03:36:05.665Z,6.10
2024-04-06T03:37:05.649Z,31.60
2024-04-06T03:38:05.659Z,10.50
2024-04-06T03:39:05.659Z,9.00
2024-04-06T03:40:05.616Z,9.90
2024-04-06T03:41:05.598Z,8.20
2024-04-06T03:42:05.576Z,7.60
2024-04-06T03:43:05.585Z,6.70
2024-04-06T03:44:05.554Z,4.70
2024-04-06T03:45:05.550Z,3.90
2024-04-06T03:46:05.530Z,2.70
2024-04-06T03:47:05.511Z,2.50
2024-04-06T03:48:05.517Z,2.70
2024-04-06T03:49:05.499Z,3.10
2024-04-06T03:50:05.482Z,3.10
2024-04-06T03:51:05.465Z,3.50
2024-04-06T03:52:05.463Z,4.00
2024-04-06T03:53:05.455Z,4.70
2024-04-06T03:54:05.423Z,4.60
2024-04-06T03:55:05.421Z,4.20
2024-04-06T03:56:05.399Z,4.60
2024-04-06T03:57:05.402Z,4.30
2024-04-06T03:58:05.367Z,3.90
2024-04-06T03:59:05.370Z,3.00
2024-04-06T04:00:05.357Z,3.30
2024-04-06T04:01:05.332Z,2.70
2024-04-06T04:02:05.339Z,3.30
2024-04-06T04:03:05.304Z,3.30
2024-04-06T04:04:05.287Z,3.30
2024-04-06T04:05:05.279Z,3.10
2024-04-06T04:06:05.264Z,3.00
2024-04-06T04:07:05.270Z,3.30
2024-04-06T04:08:05.239Z,3.70
2024-04-06T04:09:05.222Z,3.40
2024-04-06T04:10:05.209Z,3.70
2024-04-06T04:11:05.227Z,3.40
2024-04-06T04:12:05.199Z,3.30
2024-04-06T04:13:05.170Z,3.50
2024-04-06T04:14:05.157Z,3.70
2024-04-06T04:15:05.153Z,3.20
2024-04-06T04:16:05.151Z,3.70
2024-04-06T04:17:05.119Z,3.80
2024-04-06T04:18:05.105Z,3.40
2024-04-06T04:19:05.107Z,3.40
2024-04-06T04:20:05.074Z,3.10
2024-04-06T04:21:05.079Z,3.00
2024-04-06T04:22:05.072Z,3.00
2024-04-06T04:23:05.036Z,2.80
2024-04-06T04:24:05.028Z,2.80
2024-04-06T04:25:05.025Z,3.00
2024-04-06T04:26:05.016Z,3.00
2024-04-06T04:27:05.001Z,3.00
2024-04-06T04:28:04.976Z,2.80
2024-04-06T04:29:04.957Z,2.70
2024-04-06T04:30:04.958Z,2.80
2024-04-06T04:31:04.934Z,2.90
2024-04-06T04:32:04.919Z,3.30
2024-04-06T04:33:04.927Z,3.00
2024-04-06T04:34:04.900Z,3.50
2024-04-06T04:35:04.904Z,3.40
2024-04-06T04:36:04.874Z,3.30
2024-04-06T04:37:04.855Z,3.40
2024-04-06T04:38:04.843Z,3.20
2024-04-06T04:39:04.852Z,3.50
2024-04-06T04:40:04.843Z,3.20
2024-04-06T04:41:04.808Z,3.40
2024-04-06T04:42:04.786Z,3.40
2024-04-06T04:43:04.785Z,3.30
2024-04-06T04:44:15.242Z,3.30
2024-04-06T04:45:04.772Z,3.20
2024-04-06T04:46:04.737Z,3.20
2024-04-06T04:47:04.723Z,3.00
2024-04-06T04:48:04.708Z,2.90
2024-04-06T04:49:04.723Z,3.00
2024-04-06T04:50:04.680Z,2.40
2024-04-06T04:51:04.673Z,2.50
2024-04-06T04:52:04.657Z,2.80
2024-04-06T04:53:04.647Z,2.90
2024-04-06T04:54:04.663Z,2.70
2024-04-06T04:55:04.620Z,3.30
2024-04-06T04:56:04.606Z,5.50
2024-04-06T04:57:04.595Z,7.00
2024-04-06T04:58:04.575Z,4.20
2024-04-06T04:59:04.587Z,4.10
2024-04-06T05:00:04.557Z,3.80
2024-04-06T05:01:04.540Z,2.90
2024-04-06T05:02:04.539Z,3.20
2024-04-06T05:03:04.528Z,2.80
2024-04-06T05:04:04.514Z,2.60
2024-04-06T05:05:04.480Z,2.30
2024-04-06T05:06:04.471Z,2.30
2024-04-06T05:07:04.461Z,2.30
2024-04-06T05:08:04.466Z,2.10
2024-04-06T05:09:04.428Z,2.30
2024-04-06T05:10:04.416Z,2.00
2024-04-06T05:11:04.436Z,2.20
2024-04-06T05:12:04.390Z,2.10
2024-04-06T05:13:04.395Z,2.20
2024-04-06T05:14:04.366Z,2.30
2024-04-06T05:15:04.360Z,2.10
2024-04-06T05:16:04.339Z,2.20
2024-04-06T05:17:04.344Z,1.70
2024-04-06T05:18:04.327Z,1.70
2024-04-06T05:19:04.299Z,1.60
2024-04-06T05:20:04.286Z,1.80
2024-04-06T05:21:04.272Z,1.80
2024-04-06T05:22:04.275Z,1.40
2024-04-06T05:23:04.260Z,1.50
2024-04-06T05:24:04.247Z,1.40
2024-04-06T05:25:04.220Z,1.30
2024-04-06T05:26:04.205Z,1.40
2024-04-06T05:27:04.211Z,1.30
2024-04-06T05:28:04.274Z,1.40
2024-04-06T05:29:04.161Z,1.60
2024-04-06T05:30:04.181Z,1.40
2024-04-06T05:31:04.164Z,1.50
2024-04-06T05:32:04.152Z,1.30
2024-04-06T05:33:04.120Z,1.40
2024-04-06T05:34:04.114Z,1.40
2024-04-06T05:35:04.112Z,1.40
2024-04-06T05:36:04.101Z,1.40
2024-04-06T05:37:04.092Z,1.30
2024-04-06T05:38:04.051Z,1.30
2024-04-06T05:39:04.035Z,1.40
2024-04-06T05:40:04.026Z,1.20
2024-04-06T05:41:04.030Z,1.20
2024-04-06T05:42:04.000Z,1.50
2024-04-06T05:43:04.002Z,1.40
2024-04-06T05:44:05.586Z,1.20
2024-04-06T05:45:03.963Z,1.30
2024-04-06T05:46:03.971Z,1.30
2024-04-06T05:47:03.961Z,1.30
2024-04-06T05:48:03.914Z,1.20
2024-04-06T05:49:03.926Z,1.30
2024-04-06T05:50:03.911Z,1.30
2024-04-06T05:51:03.893Z,1.40
2024-04-06T05:52:03.866Z,1.50
2024-04-06T05:53:03.855Z,1.10
2024-04-06T05:54:03.834Z,1.40
2024-04-06T05:55:03.842Z,1.10
2024-04-06T05:56:03.819Z,1.20
2024-04-06T05:57:03.792Z,1.30
2024-04-06T05:58:03.778Z,1.40
2024-04-06T05:59:03.784Z,1.40
2024-04-06T06:00:03.792Z,1.50
2024-04-06T06:01:03.745Z,1.40
2024-04-06T06:02:03.733Z,2.10
2024-04-06T06:03:03.729Z,4.50
2024-04-06T06:04:03.703Z,4.10
2024-04-06T06:05:03.708Z,4.00
2024-04-06T06:06:03.676Z,4.40
2024-04-06T06:07:03.669Z,3.60
2024-04-06T06:08:03.649Z,3.00
2024-04-06T06:09:03.638Z,2.50
2024-04-06T06:10:03.644Z,3.20
2024-04-06T06:11:03.609Z,3.20
2024-04-06T06:12:03.597Z,3.50
2024-04-06T06:13:03.577Z,3.40
2024-04-06T06:14:03.598Z,3.20
2024-04-06T06:15:03.575Z,3.20
2024-04-06T06:16:03.540Z,2.50
2024-04-06T06:17:03.528Z,2.40
2024-04-06T06:18:03.729Z,2.40
2024-04-06T06:19:03.528Z,3.10
2024-04-06T06:20:03.489Z,2.80
2024-04-06T06:21:03.469Z,3.00
2024-04-06T06:22:03.460Z,2.80
2024-04-06T06:23:03.439Z,2.70
2024-04-06T06:24:03.445Z,2.60
2024-04-06T06:25:03.423Z,2.40
2024-04-06T06:26:03.404Z,2.20
2024-04-06T06:27:03.453Z,2.50
2024-04-06T06:28:03.379Z,2.30
2024-04-06T06:29:03.378Z,2.00
2024-04-06T06:30:03.353Z,2.20
2024-04-06T06:31:03.335Z,2.00
2024-04-06T06:32:03.326Z,1.90
2024-04-06T06:33:03.324Z,1.60
2024-04-06T06:34:03.325Z,1.90
2024-04-06T06:35:03.312Z,1.80
2024-04-06T06:38:03.261Z,1.60
2024-04-06T06:41:03.208Z,1.30
2024-04-06T06:42:03.199Z,1.40
2024-04-06T06:43:03.190Z,1.30
2024-04-06T06:44:03.164Z,1.30
2024-04-06T06:45:03.150Z,1.40
2024-04-06T06:46:03.132Z,1.60
2024-04-06T06:47:03.137Z,1.50
2024-04-06T06:48:03.125Z,1.50
2024-04-06T06:49:03.090Z,1.30
2024-04-06T06:50:03.095Z,1.30
2024-04-06T06:51:03.081Z,1.30
2024-04-06T06:52:03.070Z,1.40
2024-04-06T06:53:03.039Z,1.20
2024-04-06T06:54:03.045Z,1.60
2024-04-06T06:55:03.019Z,1.20
2024-04-06T06:56:03.002Z,1.40
2024-04-06T06:57:02.998Z,1.20
2024-04-06T06:58:03.004Z,1.30
2024-04-06T06:59:02.955Z,1.20
2024-04-06T07:01:02.945Z,1.20
2024-04-06T07:02:02.935Z,1.20
2024-04-06T07:03:02.933Z,1.30
2024-04-06T07:04:02.898Z,1.20
2024-04-06T07:05:02.884Z,1.30
2024-04-06T07:06:02.891Z,1.30
2024-04-06T07:07:08.274Z,1.30
2024-04-06T07:08:03.838Z,1.20
2024-04-06T07:09:03.224Z,1.20
2024-04-06T07:10:02.832Z,1.20
2024-04-06T07:11:02.842Z,1.20
2024-04-06T07:12:02.789Z,1.10
2024-04-06T07:13:02.779Z,1.20
2024-04-06T07:14:02.767Z,1.10
2024-04-06T07:15:02.752Z,1.00
2024-04-06T07:16:02.755Z,1.30
2024-04-06T07:17:02.721Z,1.00
2024-04-06T07:18:02.729Z,1.40
2024-04-06T07:19:02.694Z,1.20
2024-04-06T07:20:02.703Z,1.10
2024-04-06T07:21:02.690Z,1.20
2024-04-06T07:22:02.679Z,1.20
2024-04-06T07:23:02.652Z,1.40
2024-04-06T07:24:02.632Z,1.10
2024-04-06T07:25:02.667Z,1.40
2024-04-06T07:26:02.621Z,1.30
2024-04-06T07:27:02.588Z,1.20
2024-04-06T07:28:02.573Z,1.40
2024-04-06T07:29:02.564Z,1.20
2024-04-06T07:30:02.572Z,1.10
2024-04-06T07:31:02.538Z,1.10
2024-04-06T07:32:02.535Z,1.20
2024-04-06T07:33:02.508Z,1.30
2024-04-06T07:34:02.505Z,1.20
2024-04-06T07:35:02.496Z,1.20
2024-04-06T07:36:02.471Z,1.20
2024-04-06T07:37:02.457Z,1.20
2024-04-06T07:38:02.448Z,1.20
2024-04-06T07:40:02.436Z,1.00
2024-04-06T07:41:02.406Z,1.20
2024-04-06T07:42:02.412Z,1.30
2024-04-06T07:43:02.386Z,1.10
2024-04-06T07:44:02.391Z,1.10
2024-04-06T07:45:02.375Z,1.00
2024-04-06T07:46:02.339Z,1.10
2024-04-06T07:47:02.322Z,1.10
2024-04-06T07:48:02.326Z,1.10
2024-04-06T07:49:02.314Z,1.20
2024-04-06T07:50:02.290Z,1.10
2024-04-06T07:51:02.277Z,1.00
2024-04-06T07:52:02.298Z,1.00
2024-04-06T07:53:02.261Z,1.00
2024-04-06T07:54:02.262Z,1.20
2024-04-06T07:55:02.230Z,1.10
2024-04-06T07:56:02.209Z,1.00
2024-04-06T07:57:02.196Z,1.10
2024-04-06T07:58:02.194Z,1.20
2024-04-06T07:59:02.188Z,1.00
2024-04-06T08:00:02.152Z,1.10
2024-04-06T08:01:02.136Z,1.50
2024-04-06T08:02:02.126Z,1.20
2024-04-06T08:03:02.126Z,1.40
2024-04-06T08:04:02.107Z,1.10
2024-04-06T08:05:02.099Z,0.90
2024-04-06T08:06:02.071Z,1.10
2024-04-06T08:07:04.529Z,1.00
2024-04-06T08:08:02.062Z,1.30
2024-04-06T08:09:02.032Z,0.90
2024-04-06T08:10:02.034Z,1.10
2024-04-06T08:11:02.012Z,1.10
2024-04-06T08:12:02.021Z,1.20
2024-04-06T08:13:01.994Z,1.30
2024-04-06T08:14:13.558Z,1.00
2024-04-06T08:15:01.960Z,1.00
2024-04-06T08:16:01.955Z,1.10
2024-04-06T08:17:01.948Z,1.30
2024-04-06T08:18:01.936Z,1.00
2024-04-06T08:19:01.902Z,1.20
2024-04-06T08:20:01.910Z,1.00
2024-04-06T08:21:01.875Z,1.10
2024-04-06T08:22:01.891Z,1.10
2024-04-06T08:23:01.854Z,1.00
2024-04-06T08:24:01.842Z,1.10
2024-04-06T08:25:01.821Z,1.00
2024-04-06T08:26:01.814Z,0.90
2024-04-06T08:27:01.822Z,1.10
2024-04-06T08:28:01.784Z,1.20
2024-04-06T08:29:01.771Z,1.10
2024-04-06T08:30:01.759Z,1.00
2024-04-06T08:31:01.767Z,1.10
2024-04-06T08:32:01.743Z,1.00
2024-04-06T08:33:02.714Z,1.00
2024-04-06T08:34:01.703Z,1.10
2024-04-06T08:35:01.698Z,1.00
2024-04-06T08:36:01.699Z,1.10
2024-04-06T08:37:01.661Z,1.00
2024-04-06T08:38:01.649Z,1.00
2024-04-06T08:39:01.645Z,0.90
2024-04-06T08:40:01.625Z,1.20
2024-04-06T08:41:01.623Z,1.10
2024-04-06T08:42:01.599Z,1.10
2024-04-06T08:43:01.598Z,0.90
2024-04-06T08:44:01.575Z,1.10
2024-04-06T08:45:01.565Z,1.00
2024-04-06T08:46:01.564Z,1.00
2024-04-06T08:47:01.530Z,1.10
2024-04-06T08:48:01.521Z,1.10
2024-04-06T08:49:01.507Z,1.10
2024-04-06T08:50:01.512Z,1.00
2024-04-06T08:51:01.494Z,1.20
2024-04-06T08:52:01.472Z,1.00
2024-04-06T08:53:01.457Z,1.20
2024-04-06T08:54:01.442Z,1.00
2024-04-06T08:55:01.470Z,1.10
2024-04-06T08:56:01.417Z,1.20
2024-04-06T08:57:01.397Z,1.00
2024-04-06T08:58:01.390Z,1.20
2024-04-06T08:59:01.451Z,1.00
2024-04-06T09:00:01.407Z,1.10
2024-04-06T09:01:01.387Z,1.20
2024-04-06T09:02:01.407Z,0.90
2024-04-06T09:03:01.408Z,1.10
2024-04-06T09:04:01.314Z,1.10
2024-04-06T09:05:01.314Z,0.90
2024-04-06T09:06:01.296Z,1.00
2024-04-06T09:07:01.272Z,1.00
2024-04-06T09:08:01.261Z,1.10
2024-04-06T09:09:01.250Z,1.40
2024-04-06T09:10:01.258Z,0.90
2024-04-06T09:11:01.241Z,1.20
2024-04-06T09:12:01.217Z,1.20
2024-04-06T09:13:01.199Z,1.20
2024-04-06T09:14:01.190Z,0.90
2024-04-06T09:15:01.251Z,1.10
2024-04-06T09:16:01.160Z,1.10
2024-04-06T09:17:01.145Z,1.00
2024-04-06T09:18:01.168Z,1.00
2024-04-06T09:19:01.157Z,1.10
2024-04-06T09:20:01.124Z,1.20
2024-04-06T09:21:01.104Z,1.00
2024-04-06T09:22:01.093Z,1.20
2024-04-06T09:23:01.065Z,1.00
2024-04-06T09:24:01.074Z,1.00
2024-04-06T09:25:01.077Z,0.90
2024-04-06T09:26:01.030Z,1.20
2024-04-06T09:27:01.022Z,1.20
2024-04-06T09:28:01.007Z,1.10
2024-04-06T09:29:01.010Z,0.90
2024-04-06T09:30:00.979Z,0.80
2024-04-06T09:31:00.983Z,1.20
2024-04-06T09:32:00.965Z,1.10
2024-04-06T09:33:00.943Z,1.00
2024-04-06T09:34:00.970Z,1.70
2024-04-06T09:35:00.918Z,1.40
2024-04-06T09:36:00.915Z,1.10
2024-04-06T09:37:00.902Z,1.00
2024-04-06T09:38:00.891Z,0.90
2024-04-06T09:39:00.896Z,1.30
2024-04-06T09:40:00.878Z,1.10
2024-04-06T09:41:00.873Z,1.00
2024-04-06T09:42:00.852Z,0.80
2024-04-06T09:43:00.849Z,1.10
2024-04-06T09:44:00.855Z,0.80
2024-04-06T09:45:00.797Z,0.80
2024-04-06T09:46:00.804Z,1.10
2024-04-06T09:47:00.778Z,1.00
2024-04-06T09:48:00.786Z,0.90
2024-04-06T09:49:00.771Z,0.90
2024-04-06T09:50:00.762Z,1.00
2024-04-06T09:51:00.726Z,1.10
2024-04-06T09:52:00.721Z,1.00
2024-04-06T09:53:00.729Z,0.90
2024-04-06T09:54:00.690Z,1.10
2024-04-06T09:55:00.673Z,1.20
2024-04-06T09:56:00.664Z,1.10
2024-04-06T09:57:00.664Z,1.10
2024-04-06T09:58:00.654Z,1.10
2024-04-06T09:59:00.623Z,1.10
2024-04-06T10:00:00.634Z,1.10
2024-04-06T10:01:00.599Z,1.00
2024-04-06T10:02:00.604Z,1.10
2024-04-06T10:03:00.600Z,2.60
2024-04-06T10:04:00.568Z,0.80
2024-04-06T10:05:00.547Z,1.10
2024-04-06T10:06:00.539Z,1.10
2024-04-06T10:07:00.541Z,1.00
2024-04-06T10:08:00.508Z,1.00
2024-04-06T10:09:00.501Z,1.70
2024-04-06T10:10:00.501Z,3.80
2024-04-06T10:11:00.496Z,1.00
2024-04-06T10:12:00.479Z,1.10
2024-04-06T10:13:00.465Z,1.00
2024-04-06T10:14:00.440Z,1.00
2024-04-06T10:15:00.425Z,1.10
2024-04-06T10:16:00.431Z,1.10
2024-04-06T10:17:00.419Z,1.00
2024-04-06T10:18:00.385Z,1.00
2024-04-06T10:19:00.387Z,0.90
2024-04-06T10:20:01.161Z,1.00
2024-04-06T10:21:00.379Z,1.00
2024-04-06T10:22:00.354Z,1.00
2024-04-06T10:23:00.329Z,1.10
2024-04-06T10:24:00.311Z,0.80
2024-04-06T10:25:00.341Z,0.90
2024-04-06T10:26:01.473Z,1.20
2024-04-06T10:27:00.276Z,1.10
2024-04-06T10:28:00.265Z,1.10
2024-04-06T10:29:00.270Z,1.10
2024-04-06T10:30:00.407Z,0.90
2024-04-06T10:31:00.319Z,1.00
2024-04-06T10:32:00.289Z,1.10
2024-04-06T10:33:00.282Z,1.20
2024-04-06T10:34:00.268Z,1.10
2024-04-06T10:35:00.329Z,1.30
2024-04-06T10:36:00.269Z,1.10
2024-04-06T10:37:01.788Z,0.90
2024-04-06T10:38:00.159Z,1.00
2024-04-06T10:39:00.135Z,1.10
2024-04-06T10:40:00.177Z,1.20
2024-04-06T10:41:00.106Z,1.00
2024-04-06T10:42:00.096Z,1.00
2024-04-06T10:43:00.659Z,1.30
2024-04-06T10:44:00.077Z,1.00
2024-04-06T10:45:00.182Z,0.90
2024-04-06T10:46:00.047Z,1.00
2024-04-06T10:47:00.036Z,1.10
2024-04-06T10:48:00.038Z,1.10
2024-04-06T10:49:00.410Z,0.90
2024-04-06T10:50:00.051Z,1.00
2024-04-06T10:51:00.002Z,0.90
2024-04-06T10:51:59.976Z,1.00
2024-04-06T10:52:59.960Z,1.10
2024-04-06T10:53:59.962Z,0.80
2024-04-06T10:54:59.956Z,0.70
2024-04-06T10:55:59.924Z,0.80
2024-04-06T10:56:59.912Z,0.80
2024-04-06T10:57:59.908Z,0.70
2024-04-06T10:58:59.904Z,0.70
2024-04-06T10:59:59.874Z,0.80
2024-04-06T11:00:59.865Z,0.70
2024-04-06T11:01:59.850Z,0.70
2024-04-06T11:02:59.841Z,0.60
2024-04-06T11:03:59.842Z,0.70
2024-04-06T11:04:59.816Z,0.80
2024-04-06T11:05:59.807Z,0.80
2024-04-06T11:06:59.794Z,0.70
2024-04-06T11:07:59.798Z,0.80
2024-04-06T11:08:59.796Z,0.70
2024-04-06T11:09:59.751Z,0.70
2024-04-06T11:10:59.743Z,0.90
2024-04-06T11:11:59.726Z,0.90
2024-04-06T11:12:59.739Z,0.80
2024-04-06T11:13:59.704Z,0.80
2024-04-06T11:14:59.688Z,0.70
2024-04-06T11:15:59.684Z,0.80
2024-04-06T11:16:59.668Z,0.70
2024-04-06T11:17:59.667Z,0.80
2024-04-06T11:18:59.642Z,0.80
2024-04-06T11:19:59.627Z,0.70
2024-04-06T11:20:59.617Z,0.90
2024-04-06T11:21:59.628Z,0.80
2024-04-06T11:22:59.625Z,0.70
2024-04-06T11:23:59.577Z,0.80
2024-04-06T11:24:59.577Z,0.80
2024-04-06T11:25:59.551Z,0.70
2024-04-06T11:26:59.564Z,0.60
2024-04-06T11:27:59.525Z,0.80
2024-04-06T11:28:59.513Z,0.80
2024-04-06T11:30:02.663Z,0.90
2024-04-06T11:30:59.501Z,0.70
2024-04-06T11:31:59.490Z,0.90
2024-04-06T11:32:59.464Z,0.70
2024-04-06T11:33:59.449Z,0.70
2024-04-06T11:34:59.439Z,0.70
2024-04-06T11:35:59.445Z,0.70
2024-04-06T11:36:59.432Z,0.70
2024-04-06T11:37:59.395Z,0.70
2024-04-06T11:38:59.398Z,0.80
2024-04-06T11:39:59.397Z,0.80
2024-04-06T11:40:59.390Z,0.80
2024-04-06T11:41:59.369Z,0.80
2024-04-06T11:42:59.346Z,0.70
2024-04-06T11:43:59.326Z,0.90
2024-04-06T11:44:59.324Z,0.80
2024-04-06T11:45:59.315Z,0.70
2024-04-06T11:46:59.291Z,0.70
2024-04-06T11:47:59.283Z,0.70
2024-04-06T11:48:59.262Z,0.80
2024-04-06T11:49:59.252Z,0.80
2024-04-06T11:50:59.255Z,0.80
2024-04-06T11:51:59.224Z,0.70
2024-04-06T11:52:59.211Z,0.70
2024-04-06T11:53:59.202Z,0.80
2024-04-06T11:54:59.230Z,0.90
2024-04-06T11:55:59.316Z,0.80
2024-04-06T11:56:59.165Z,0.70
2024-04-06T11:57:59.155Z,0.70
2024-04-06T11:58:59.135Z,0.70
2024-04-06T11:59:59.136Z,0.90
2024-04-06T12:00:59.128Z,0.80
2024-04-06T12:01:59.114Z,0.70
2024-04-06T12:02:59.091Z,0.70
2024-04-06T12:03:59.068Z,0.80
2024-04-06T12:04:59.088Z,0.70
2024-04-06T12:05:59.503Z,0.70
2024-04-06T12:06:59.032Z,0.70
2024-04-06T12:07:59.019Z,0.80
2024-04-06T12:08:59.010Z,0.70
2024-04-06T12:09:59.010Z,0.80
2024-04-06T12:10:58.988Z,0.70
2024-04-06T12:11:59.348Z,0.80
2024-04-06T12:12:58.963Z,0.70
2024-04-06T12:13:58.959Z,0.70
2024-04-06T12:14:58.954Z,0.80
2024-04-06T12:15:58.914Z,0.70
2024-04-06T12:16:58.904Z,0.60
2024-04-06T12:17:59.568Z,0.60
2024-04-06T12:18:58.906Z,0.50
2024-04-06T12:19:58.870Z,0.70
2024-04-06T12:20:58.866Z,0.60
2024-04-06T12:21:58.846Z,0.80
2024-04-06T12:22:58.826Z,0.60
2024-04-06T12:23:58.832Z,0.70
2024-04-06T12:24:58.818Z,0.70
2024-04-06T12:25:58.798Z,0.60
2024-04-06T12:26:58.800Z,0.60
2024-04-06T12:27:58.780Z,0.80
2024-04-06T12:28:58.781Z,0.70
2024-04-06T12:29:58.775Z,0.70
2024-04-06T12:30:58.737Z,0.70
2024-04-06T12:31:58.716Z,0.70
2024-04-06T12:32:58.722Z,0.80
2024-04-06T12:33:58.707Z,0.80
2024-04-06T12:34:58.678Z,0.60
2024-04-06T12:35:58.668Z,0.60
2024-04-06T12:36:58.665Z,0.90
2024-04-06T12:37:58.659Z,0.70
2024-04-06T12:38:58.632Z,0.50
2024-04-06T12:39:58.615Z,0.70
2024-04-06T12:40:58.599Z,0.80
2024-04-06T12:41:58.591Z,0.80
2024-04-06T12:42:58.614Z,0.90
2024-04-06T12:43:58.569Z,1.00
2024-04-06T12:44:58.551Z,0.80
2024-04-06T12:45:58.540Z,0.70
2024-04-06T12:46:58.530Z,0.70
2024-04-06T12:47:58.536Z,0.80
2024-04-06T12:48:58.510Z,0.80
2024-04-06T12:49:58.491Z,0.60
2024-04-06T12:50:58.496Z,0.60
2024-04-06T12:51:58.470Z,0.70
2024-04-06T12:52:58.471Z,0.70
2024-04-06T12:53:58.443Z,0.60
2024-04-06T12:54:58.434Z,0.70
2024-04-06T12:55:58.421Z,0.70
2024-04-06T12:56:58.407Z,0.60
2024-04-06T12:57:58.414Z,0.60
2024-04-06T12:58:58.392Z,0.70
2024-04-06T12:59:58.379Z,1.10
2024-04-06T13:00:58.364Z,0.70
2024-04-06T13:01:58.358Z,0.60
2024-04-06T13:02:58.353Z,0.70
2024-04-06T13:04:05.199Z,0.70
2024-04-06T13:04:59.323Z,0.60
2024-04-06T13:05:58.295Z,0.70
2024-04-06T13:06:58.304Z,0.70
2024-04-06T13:07:58.276Z,0.80
2024-04-06T13:08:58.269Z,0.70
2024-04-06T13:09:58.262Z,0.80
2024-04-06T13:10:58.248Z,0.90
2024-04-06T13:11:58.240Z,0.80
2024-04-06T13:12:58.217Z,0.80
2024-04-06T13:13:58.199Z,0.80
2024-04-06T13:14:58.204Z,0.90
2024-04-06T13:15:58.189Z,0.80
2024-04-06T13:16:58.207Z,0.80
2024-04-06T13:17:58.164Z,0.90
2024-04-06T13:18:58.137Z,0.90
2024-04-06T13:19:58.134Z,0.80
2024-04-06T13:20:58.131Z,0.90
2024-04-06T13:21:58.112Z,0.80
2024-04-06T13:22:58.087Z,0.70
2024-04-06T13:23:58.073Z,0.70